createdAt,value
2023-01-30T00:01:01.407Z,20.10
2023-01-30T00:03:28.060Z,21.85
2023-01-30T00:05:54.487Z,20.88
2023-01-30T00:08:21.456Z,21.25
2023-01-30T00:10:48.159Z,19.80
2023-01-30T00:13:15.588Z,22.52
2023-01-30T00:15:42.790Z,21.15
2023-01-30T00:18:09.815Z,21.80
2023-01-30T00:20:36.904Z,24.02
2023-01-30T00:23:04.673Z,22.40
2023-01-30T00:25:31.630Z,21.73
2023-01-30T00:28:01.688Z,24.63
2023-01-30T00:30:28.757Z,22.25
2023-01-30T00:32:59.216Z,23.95
2023-01-30T00:35:28.431Z,21.30
2023-01-30T00:37:57.176Z,22.65
2023-01-30T00:40:28.081Z,28.60
2023-01-30T00:43:14.014Z,25.88
2023-01-30T00:46:01.763Z,29.48
2023-01-30T00:48:28.374Z,23.75
2023-01-30T00:50:54.788Z,23.08
2023-01-30T00:53:21.267Z,22.02
2023-01-30T00:55:47.762Z,29.15
2023-01-30T00:58:14.213Z,24.10
2023-01-30T01:00:40.735Z,23.63
2023-01-30T01:03:07.827Z,24.23
2023-01-30T01:05:34.791Z,23.38
2023-01-30T01:08:01.816Z,24.00
2023-01-30T01:10:28.635Z,23.35
2023-01-30T01:12:55.337Z,27.50
2023-01-30T01:15:23.512Z,28.23
2023-01-30T01:17:50.316Z,30.35
2023-01-30T01:20:18.357Z,28.60
2023-01-30T01:22:45.052Z,28.38
2023-01-30T01:25:11.685Z,29.98
2023-01-30T01:27:38.624Z,29.98
2023-01-30T01:30:06.596Z,32.28
2023-01-30T01:32:33.033Z,27.45
2023-01-30T01:34:59.510Z,28.55
2023-01-30T01:37:26.142Z,28.17
2023-01-30T01:40:11.266Z,27.70
2023-01-30T01:42:38.901Z,26.60
2023-01-30T01:45:18.023Z,28.77
2023-01-30T01:48:16.939Z,28.65
2023-01-30T01:50:49.232Z,29.80
2023-01-30T01:53:18.891Z,31.27
2023-01-30T01:55:49.928Z,30.92
2023-01-30T01:58:41.357Z,34.80
2023-01-30T02:01:08.100Z,32.38
2023-01-30T02:03:37.954Z,30.58
2023-01-30T02:06:04.756Z,30.15
2023-01-30T02:08:38.896Z,28.05
2023-01-30T02:11:08.765Z,28.27
2023-01-30T02:13:35.968Z,27.92
2023-01-30T02:16:04.201Z,30.27
2023-01-30T02:18:33.985Z,30.00
2023-01-30T02:21:22.041Z,30.33
2023-01-30T02:24:17.697Z,28.05
2023-01-30T02:26:57.718Z,27.65
2023-01-30T02:30:12.190Z,29.67
2023-01-30T02:32:41.352Z,24.23
2023-01-30T02:35:37.036Z,28.40
2023-01-30T02:38:24.877Z,23.20
2023-01-30T02:40:57.484Z,24.17
2023-01-30T02:43:44.524Z,22.77
2023-01-30T02:46:52.766Z,24.27
2023-01-30T02:49:28.322Z,24.50
2023-01-30T02:51:56.576Z,25.92
2023-01-30T02:54:23.065Z,26.17
2023-01-30T02:56:57.266Z,26.13
2023-01-30T02:59:37.264Z,24.08
2023-01-30T03:02:28.006Z,25.70
2023-01-30T03:05:10.288Z,26.35
2023-01-30T03:07:50.401Z,24.77
2023-01-30T03:10:38.151Z,22.35
2023-01-30T03:13:21.001Z,27.10
2023-01-30T03:15:59.544Z,26.02
2023-01-30T03:18:28.428Z,28.50
2023-01-30T03:20:55.021Z,28.70
2023-01-30T03:23:24.243Z,30.23
2023-01-30T03:25:51.121Z,26.25
2023-01-30T03:28:21.253Z,28.00
2023-01-30T03:30:47.825Z,29.83
2023-01-30T03:33:14.290Z,29.58
2023-01-30T03:35:41.311Z,26.60
2023-01-30T03:38:08.237Z,29.20
2023-01-30T03:40:34.780Z,28.02
2023-01-30T03:43:01.191Z,29.88
2023-01-30T03:45:27.603Z,30.52
2023-01-30T03:47:54.117Z,27.30
2023-01-30T03:50:20.579Z,30.83
2023-01-30T03:52:47.004Z,27.50
2023-01-30T03:55:13.526Z,30.05
2023-01-30T03:57:39.956Z,28.65
2023-01-30T04:00:06.993Z,30.15
2023-01-30T04:02:33.431Z,29.00
2023-01-30T04:04:59.945Z,31.80
2023-01-30T04:07:29.582Z,30.15
2023-01-30T04:09:55.987Z,27.85
2023-01-30T04:12:22.377Z,30.17
2023-01-30T04:14:48.780Z,31.98
2023-01-30T04:17:15.259Z,29.88
2023-01-30T04:19:41.695Z,28.15
2023-01-30T04:22:08.105Z,30.45
2023-01-30T04:24:34.489Z,30.98
2023-01-30T04:27:00.951Z,28.23
2023-01-30T04:29:27.370Z,30.77
2023-01-30T04:31:53.808Z,30.55
2023-01-30T04:34:20.286Z,27.42
2023-01-30T04:36:46.724Z,31.00
2023-01-30T04:39:13.107Z,28.38
2023-01-30T04:41:39.524Z,29.70
2023-01-30T04:44:07.105Z,28.90
2023-01-30T04:46:34.435Z,28.77
2023-01-30T04:49:00.843Z,28.13
2023-01-30T04:51:27.228Z,29.13
2023-01-30T04:53:53.662Z,27.02
2023-01-30T04:56:20.133Z,25.33
2023-01-30T04:58:46.530Z,26.83
2023-01-30T05:01:17.143Z,26.13
2023-01-30T05:03:43.589Z,27.45
2023-01-30T05:06:10.002Z,26.70
2023-01-30T05:08:36.419Z,28.98
2023-01-30T05:11:02.831Z,26.67
2023-01-30T05:13:29.234Z,28.75
2023-01-30T05:15:55.809Z,28.00
2023-01-30T05:18:22.198Z,27.25
2023-01-30T05:20:48.590Z,27.20
2023-01-30T05:23:14.973Z,26.48
2023-01-30T05:25:41.474Z,24.88
2023-01-30T05:28:07.882Z,28.52
2023-01-30T05:30:34.422Z,27.73
2023-01-30T05:33:00.824Z,26.45
2023-01-30T05:35:27.211Z,27.00
2023-01-30T05:37:53.647Z,26.30
2023-01-30T05:40:20.036Z,27.02
2023-01-30T05:42:46.424Z,30.80
2023-01-30T05:45:12.834Z,27.50
2023-01-30T05:47:39.247Z,27.95
2023-01-30T05:50:05.914Z,26.52
2023-01-30T05:52:32.324Z,25.65
2023-01-30T05:54:58.732Z,30.55
2023-01-30T05:57:25.154Z,26.83
2023-01-30T05:59:51.582Z,25.05
2023-01-30T06:02:17.978Z,25.58
2023-01-30T06:04:44.373Z,27.60
2023-01-30T06:07:10.756Z,25.77
2023-01-30T06:09:37.184Z,25.77
2023-01-30T06:12:03.742Z,27.27
2023-01-30T06:14:30.145Z,29.92
2023-01-30T06:16:56.612Z,27.80
2023-01-30T06:19:23.200Z,25.30
2023-01-30T06:21:49.625Z,29.70
2023-01-30T06:24:16.017Z,27.45
2023-01-30T06:26:42.457Z,26.77
2023-01-30T06:29:08.901Z,25.52
2023-01-30T06:31:35.398Z,25.45
2023-01-30T06:34:01.807Z,26.02
2023-01-30T06:36:28.192Z,23.42
2023-01-30T06:38:54.621Z,25.50
2023-01-30T06:41:21.445Z,24.30
2023-01-30T06:43:47.954Z,25.60
2023-01-30T06:46:14.613Z,27.00
2023-01-30T06:48:41.092Z,25.73
2023-01-30T06:51:07.506Z,27.27
2023-01-30T06:53:33.915Z,26.40
2023-01-30T06:56:01.731Z,26.27
2023-01-30T06:58:28.368Z,27.05
2023-01-30T07:00:54.898Z,26.45
2023-01-30T07:03:21.331Z,28.63
2023-01-30T07:05:48.362Z,27.52
2023-01-30T07:08:30.558Z,28.58
2023-01-30T07:10:56.986Z,28.42
2023-01-30T07:13:23.380Z,29.33
2023-01-30T07:15:50.539Z,30.80
2023-01-30T07:18:16.972Z,29.20
2023-01-30T07:20:47.782Z,33.45
2023-01-30T07:23:14.190Z,31.30
2023-01-30T07:25:40.634Z,31.55
2023-01-30T07:28:07.143Z,30.27
2023-01-30T07:30:36.083Z,31.25
2023-01-30T07:33:04.976Z,30.33
2023-01-30T07:35:34.290Z,29.33
2023-01-30T07:38:00.724Z,31.15
2023-01-30T07:40:27.681Z,31.58
2023-01-30T07:43:02.689Z,30.17
2023-01-30T07:45:35.260Z,27.02
2023-01-30T07:48:01.668Z,30.20
2023-01-30T07:50:28.263Z,30.15
2023-01-30T07:52:54.998Z,29.67
2023-01-30T07:55:24.811Z,29.60
2023-01-30T07:57:51.232Z,31.92
2023-01-30T08:00:18.664Z,30.40
2023-01-30T08:02:45.315Z,29.70
2023-01-30T08:05:12.170Z,29.85
2023-01-30T08:07:44.581Z,31.98
2023-01-30T08:10:12.163Z,29.23
2023-01-30T08:12:42.467Z,31.48
2023-01-30T08:15:10.296Z,32.75
2023-01-30T08:17:37.020Z,33.17
2023-01-30T08:20:04.571Z,30.20
2023-01-30T08:22:31.121Z,33.88
2023-01-30T08:24:57.541Z,32.00
2023-01-30T08:27:23.963Z,34.53
2023-01-30T08:29:50.516Z,34.15
2023-01-30T08:32:16.945Z,33.80
2023-01-30T08:34:52.153Z,35.08
2023-01-30T08:37:18.605Z,36.35
2023-01-30T08:39:45.082Z,35.28
2023-01-30T08:42:11.566Z,32.80
2023-01-30T08:44:38.045Z,35.70
2023-01-30T08:47:04.479Z,33.45
2023-01-30T08:49:40.746Z,35.38
2023-01-30T08:52:07.230Z,37.22
2023-01-30T08:54:33.751Z,35.83
2023-01-30T08:57:00.184Z,38.65
2023-01-30T08:59:26.630Z,38.70
2023-01-30T09:01:53.080Z,35.75
2023-01-30T09:04:19.510Z,35.80
2023-01-30T09:06:45.913Z,36.95
2023-01-30T09:09:12.368Z,35.92
2023-01-30T09:11:38.843Z,36.63
2023-01-30T09:14:05.284Z,38.60
2023-01-30T09:16:31.897Z,39.95
2023-01-30T09:18:58.316Z,40.10
2023-01-30T09:21:25.189Z,40.88
2023-01-30T09:23:51.629Z,37.90
2023-01-30T09:26:18.198Z,38.90
2023-01-30T09:28:44.677Z,37.92
2023-01-30T09:31:11.220Z,39.05
2023-01-30T09:33:37.765Z,38.70
2023-01-30T09:36:04.555Z,39.25
2023-01-30T09:38:31.191Z,37.88
2023-01-30T09:41:22.074Z,40.20
2023-01-30T09:44:03.131Z,37.22
2023-01-30T09:47:03.811Z,35.22
2023-01-30T09:49:50.674Z,38.25
2023-01-30T09:52:31.377Z,39.95
2023-01-30T09:55:19.738Z,38.78
2023-01-30T09:57:48.962Z,44.38
2023-01-30T10:00:49.106Z,41.60
2023-01-30T10:03:24.226Z,39.25
2023-01-30T10:05:59.310Z,43.75
2023-01-30T10:08:52.035Z,40.55
2023-01-30T10:11:30.907Z,48.25
2023-01-30T10:14:20.914Z,42.67
2023-01-30T10:16:58.747Z,36.50
2023-01-30T10:19:53.345Z,40.38
2023-01-30T10:22:47.156Z,40.75
2023-01-30T10:25:38.510Z,41.40
2023-01-30T10:28:36.776Z,56.60
2023-01-30T10:31:19.234Z,48.25
2023-01-30T10:34:07.625Z,43.78
2023-01-30T10:36:41.076Z,44.78
2023-01-30T10:39:21.386Z,41.38
2023-01-30T10:42:10.215Z,42.17
2023-01-30T10:44:39.150Z,39.42
2023-01-30T10:47:47.150Z,38.75
2023-01-30T10:50:24.411Z,40.20
2023-01-30T10:53:08.185Z,39.42
2023-01-30T10:55:46.881Z,38.85
2023-01-30T10:58:17.738Z,36.88
2023-01-30T11:00:56.059Z,40.63
2023-01-30T11:03:47.957Z,40.85
2023-01-30T11:08:45.954Z,37.78
2023-01-30T11:11:26.705Z,41.10
2023-01-30T11:14:10.480Z,35.30
2023-01-30T11:16:53.868Z,35.60
2023-01-30T11:19:24.262Z,36.03
2023-01-30T11:21:53.581Z,43.10
2023-01-30T11:24:23.452Z,40.92
2023-01-30T11:27:12.408Z,43.78
2023-01-30T11:29:39.593Z,42.85
2023-01-30T11:32:19.576Z,41.53
2023-01-30T11:35:24.360Z,40.97
2023-01-30T11:37:53.308Z,47.28
2023-01-30T11:40:25.619Z,37.80
2023-01-30T11:43:10.487Z,39.55
2023-01-30T11:45:40.753Z,36.70
2023-01-30T11:48:31.301Z,34.78
2023-01-30T11:51:06.135Z,36.70
2023-01-30T11:53:40.311Z,34.17
2023-01-30T11:56:17.282Z,34.15
2023-01-30T11:58:47.992Z,34.83
2023-01-30T12:01:16.151Z,32.95
2023-01-30T12:03:52.143Z,32.80
2023-01-30T12:06:32.944Z,34.50
2023-01-30T12:09:00.074Z,37.47
2023-01-30T12:11:35.286Z,34.13
2023-01-30T12:14:25.438Z,32.90
2023-01-30T12:17:12.400Z,36.33
2023-01-30T12:20:01.193Z,34.13
2023-01-30T12:22:38.120Z,34.28
2023-01-30T12:25:31.194Z,36.17
2023-01-30T12:28:02.417Z,31.92
2023-01-30T12:30:56.626Z,32.70
2023-01-30T12:33:28.620Z,33.90
2023-01-30T12:36:19.460Z,34.78
2023-01-30T12:39:10.819Z,32.50
2023-01-30T12:41:51.402Z,37.67
2023-01-30T12:44:23.617Z,45.30
2023-01-30T12:47:25.696Z,38.80
2023-01-30T12:50:36.599Z,45.10
2023-01-30T12:53:21.775Z,45.97
2023-01-30T12:56:17.796Z,41.67
2023-01-30T12:58:50.851Z,43.55
2023-01-30T13:01:25.423Z,40.10
2023-01-30T13:04:16.723Z,35.50
2023-01-30T13:07:10.748Z,42.67
2023-01-30T13:09:40.191Z,38.45
2023-01-30T13:12:13.384Z,44.95
2023-01-30T13:14:57.148Z,43.15
2023-01-30T13:17:44.519Z,46.13
2023-01-30T13:20:23.109Z,34.17
2023-01-30T13:23:18.495Z,31.63
2023-01-30T13:26:01.004Z,37.28
2023-01-30T13:28:50.171Z,40.85
2023-01-30T13:31:24.306Z,37.65
2023-01-30T13:34:03.437Z,35.85
2023-01-30T13:36:54.273Z,41.90
2023-01-30T13:39:42.613Z,33.27
2023-01-30T13:42:23.342Z,33.33
2023-01-30T13:44:51.727Z,36.80
2023-01-30T13:47:23.424Z,38.40
2023-01-30T13:50:12.794Z,38.85
2023-01-30T13:52:46.006Z,44.25
2023-01-30T13:55:49.557Z,37.33
2023-01-30T13:58:25.146Z,53.60
2023-01-30T14:00:53.804Z,43.55
2023-01-30T14:03:25.084Z,47.67
2023-01-30T14:05:51.717Z,36.95
2023-01-30T14:08:22.641Z,43.35
2023-01-30T14:10:50.234Z,41.65
2023-01-30T14:13:19.764Z,46.72
2023-01-30T14:16:02.565Z,47.00
2023-01-30T14:18:38.478Z,41.03
2023-01-30T14:21:31.046Z,37.95
2023-01-30T14:24:00.572Z,38.75
2023-01-30T14:26:48.713Z,48.15
2023-01-30T14:29:40.953Z,41.30
2023-01-30T14:32:14.029Z,29.98
2023-01-30T14:34:44.489Z,33.95
2023-01-30T14:37:41.488Z,34.40
2023-01-30T14:40:22.831Z,41.47
2023-01-30T14:43:27.606Z,38.60
2023-01-30T14:46:02.610Z,65.55
2023-01-30T14:48:48.236Z,51.45
2023-01-30T14:51:25.946Z,57.05
2023-01-30T14:53:57.692Z,47.88
2023-01-30T14:57:01.450Z,42.03
2023-01-30T14:59:38.815Z,34.75
2023-01-30T15:02:14.382Z,43.85
2023-01-30T15:04:46.656Z,37.17
2023-01-30T15:07:37.996Z,34.33
2023-01-30T15:10:23.581Z,40.55
2023-01-30T15:13:05.188Z,39.17
2023-01-30T15:15:54.915Z,46.95
2023-01-30T15:18:43.116Z,55.08
2023-01-30T15:21:37.575Z,52.60
2023-01-30T15:24:41.678Z,41.42
2023-01-30T15:27:45.305Z,37.50
2023-01-30T15:30:29.929Z,39.55
2023-01-30T15:33:19.878Z,36.70
2023-01-30T15:35:49.215Z,36.72
2023-01-30T15:38:28.105Z,36.22
2023-01-30T15:40:57.871Z,36.92
2023-01-30T15:43:27.381Z,37.28
2023-01-30T15:46:06.062Z,42.97
2023-01-30T15:48:58.818Z,44.97
2023-01-30T15:51:30.888Z,37.92
2023-01-30T15:53:59.279Z,40.80
2023-01-30T15:56:31.396Z,38.45
2023-01-30T15:59:00.631Z,39.28
2023-01-30T16:01:27.434Z,41.13
2023-01-30T16:03:54.234Z,38.80
2023-01-30T16:06:34.493Z,39.83
2023-01-30T16:09:06.831Z,41.35
2023-01-30T16:11:33.191Z,48.63
2023-01-30T16:14:01.402Z,43.00
2023-01-30T16:16:29.047Z,42.22
2023-01-30T16:18:59.274Z,37.47
2023-01-30T16:21:31.031Z,35.92
2023-01-30T16:24:06.790Z,37.30
2023-01-30T16:26:35.697Z,35.42
2023-01-30T16:29:11.415Z,33.47
2023-01-30T16:31:39.841Z,39.88
2023-01-30T16:34:17.681Z,37.08
2023-01-30T16:36:47.528Z,39.70
2023-01-30T16:39:45.639Z,39.63
2023-01-30T16:42:26.156Z,40.75
2023-01-30T16:45:08.199Z,40.33
2023-01-30T16:47:34.706Z,43.60
2023-01-30T16:50:01.222Z,38.72
2023-01-30T16:52:41.122Z,41.80
2023-01-30T16:55:18.511Z,42.13
2023-01-30T16:57:52.426Z,38.53
2023-01-30T17:00:33.784Z,37.03
2023-01-30T17:03:03.785Z,44.08
2023-01-30T17:05:37.706Z,42.22
2023-01-30T17:08:04.332Z,42.25
2023-01-30T17:10:51.977Z,51.88
2023-01-30T17:13:37.348Z,46.70
2023-01-30T17:16:22.047Z,44.20
2023-01-30T17:18:49.674Z,40.13
2023-01-30T17:21:17.192Z,39.08
2023-01-30T17:23:54.692Z,39.55
2023-01-30T17:26:21.258Z,37.13
2023-01-30T17:28:47.755Z,38.85
2023-01-30T17:31:16.217Z,42.60
2023-01-30T17:33:43.109Z,44.65
2023-01-30T17:36:22.408Z,45.20
2023-01-30T17:38:50.890Z,44.83
2023-01-30T17:41:27.094Z,46.72
2023-01-30T17:43:53.473Z,44.13
2023-01-30T17:46:23.747Z,41.15
2023-01-30T17:48:51.693Z,46.70
2023-01-30T17:51:18.168Z,45.00
2023-01-30T17:53:44.586Z,46.78
2023-01-30T17:56:22.010Z,62.85
2023-01-30T17:58:50.603Z,81.20
2023-01-30T18:01:18.925Z,81.20
2023-01-30T18:03:45.843Z,56.38
2023-01-30T18:06:14.319Z,57.08
2023-01-30T18:08:41.525Z,57.80
2023-01-30T18:11:12.077Z,56.10
2023-01-30T18:13:39.971Z,53.08
2023-01-30T18:16:06.697Z,43.83
2023-01-30T18:18:33.306Z,45.67
2023-01-30T18:20:59.745Z,41.00
2023-01-30T18:23:26.204Z,49.72
2023-01-30T18:25:52.603Z,51.53
2023-01-30T18:28:18.984Z,46.88
2023-01-30T18:30:45.486Z,47.35
2023-01-30T18:33:12.012Z,56.65
2023-01-30T18:35:39.029Z,50.60
2023-01-30T18:38:05.490Z,48.10
2023-01-30T18:40:31.916Z,50.03
2023-01-30T18:42:58.423Z,48.85
2023-01-30T18:45:24.851Z,48.83
2023-01-30T18:47:52.452Z,44.35
2023-01-30T18:50:19.350Z,69.32
2023-01-30T18:52:47.319Z,48.13
2023-01-30T18:55:13.820Z,61.42
2023-01-30T18:57:40.252Z,98.13
2023-01-30T19:00:07.477Z,104.32
2023-01-30T19:02:34.021Z,88.25
2023-01-30T19:05:00.516Z,84.30
2023-01-30T19:07:26.926Z,67.30
2023-01-30T19:09:56.453Z,53.85
2023-01-30T19:12:42.406Z,47.17
2023-01-30T19:15:09.414Z,42.55
2023-01-30T19:17:35.927Z,42.38
2023-01-30T19:20:04.697Z,37.58
2023-01-30T19:22:31.072Z,41.33
2023-01-30T19:24:57.546Z,54.72
2023-01-30T19:27:24.521Z,64.32
2023-01-30T19:29:51.076Z,70.95
2023-01-30T19:32:17.468Z,64.07
2023-01-30T19:34:45.131Z,68.47
2023-01-30T19:37:11.525Z,75.47
2023-01-30T19:39:37.907Z,67.72
2023-01-30T19:42:04.511Z,46.15
2023-01-30T19:44:30.981Z,55.47
2023-01-30T19:46:57.424Z,49.33
2023-01-30T19:49:23.813Z,42.83
2023-01-30T19:51:50.228Z,43.58
2023-01-30T19:54:16.784Z,42.80
2023-01-30T19:56:47.299Z,41.85
2023-01-30T19:59:15.966Z,42.85
2023-01-30T20:01:42.558Z,42.25
2023-01-30T20:04:09.089Z,42.53
2023-01-30T20:06:37.422Z,47.00
2023-01-30T20:09:06.695Z,43.83
2023-01-30T20:11:35.410Z,41.08
2023-01-30T20:14:02.023Z,45.70
2023-01-30T20:16:29.642Z,48.33
2023-01-30T20:18:59.421Z,47.05
2023-01-30T20:21:26.913Z,56.40
2023-01-30T20:23:54.131Z,60.20
2023-01-30T20:26:24.492Z,63.75
2023-01-30T20:28:51.177Z,58.90
2023-01-30T20:31:20.661Z,50.60
2023-01-30T20:33:47.408Z,51.80
2023-01-30T20:36:18.585Z,53.75
2023-01-30T20:38:46.692Z,47.97
2023-01-30T20:41:18.446Z,47.65
2023-01-30T20:43:46.883Z,43.60
2023-01-30T20:46:16.745Z,49.15
2023-01-30T20:48:43.685Z,47.08
2023-01-30T20:51:12.686Z,41.58
2023-01-30T20:53:40.047Z,47.13
2023-01-30T20:56:07.098Z,41.72
2023-01-30T20:58:33.566Z,41.28
2023-01-30T21:01:18.579Z,36.85
2023-01-30T21:03:48.020Z,37.72
2023-01-30T21:06:14.869Z,41.20
2023-01-30T21:09:02.436Z,41.20
2023-01-30T21:11:29.172Z,39.72
2023-01-30T21:13:55.662Z,39.45
2023-01-30T21:16:24.933Z,39.25
2023-01-30T21:18:54.590Z,39.45
2023-01-30T21:21:29.843Z,38.55
2023-01-30T21:23:58.714Z,40.90
2023-01-30T21:26:27.695Z,44.13
2023-01-30T21:28:55.245Z,39.17
2023-01-30T21:31:24.830Z,40.40
2023-01-30T21:33:51.527Z,42.30
2023-01-30T21:36:18.407Z,41.63
2023-01-30T21:39:03.424Z,43.80
2023-01-30T21:41:54.646Z,42.08
2023-01-30T21:44:25.585Z,41.13
2023-01-30T21:46:52.224Z,41.90
2023-01-30T21:49:19.404Z,42.53
2023-01-30T21:51:48.382Z,38.90
2023-01-30T21:54:16.024Z,42.63
2023-01-30T21:56:42.735Z,39.50
2023-01-30T21:59:10.009Z,41.78
2023-01-30T22:01:37.674Z,36.90
2023-01-30T22:04:08.526Z,37.92
2023-01-30T22:06:36.846Z,41.13
2023-01-30T22:09:05.659Z,37.80
2023-01-30T22:11:34.760Z,39.33
2023-01-30T22:14:01.214Z,41.83
2023-01-30T22:16:29.305Z,34.45
2023-01-30T22:18:56.934Z,37.08
2023-01-30T22:21:26.429Z,38.20
2023-01-30T22:23:54.768Z,36.85
2023-01-30T22:26:23.647Z,41.92
2023-01-30T22:28:58.251Z,38.05
2023-01-30T22:31:26.698Z,39.05
2023-01-30T22:33:55.668Z,39.75
2023-01-30T22:36:27.209Z,40.17
2023-01-30T22:38:54.334Z,39.00
2023-01-30T22:41:23.999Z,38.60
2023-01-30T22:43:56.273Z,36.38
2023-01-30T22:46:25.365Z,38.63
2023-01-30T22:48:52.660Z,37.25
2023-01-30T22:51:24.480Z,40.55
2023-01-30T22:53:53.363Z,37.25
2023-01-30T22:56:22.960Z,37.97
2023-01-30T22:58:50.567Z,37.47
2023-01-30T23:01:28.324Z,42.55
2023-01-30T23:03:57.755Z,39.38
2023-01-30T23:06:25.218Z,38.63
2023-01-30T23:08:54.054Z,39.72
2023-01-30T23:11:24.404Z,36.15
2023-01-30T23:13:53.686Z,38.30
2023-01-30T23:16:22.464Z,37.53
2023-01-30T23:18:55.903Z,37.53
2023-01-30T23:21:31.772Z,35.85
2023-01-30T23:24:00.603Z,38.38
2023-01-30T23:26:30.772Z,40.95
2023-01-30T23:28:58.002Z,39.50
2023-01-30T23:31:26.665Z,40.75
2023-01-30T23:33:58.560Z,37.28
2023-01-30T23:36:25.733Z,38.92
2023-01-30T23:38:53.910Z,41.30
2023-01-30T23:41:25.200Z,36.17
2023-01-30T23:43:52.262Z,39.42
2023-01-30T23:46:27.829Z,38.05
2023-01-30T23:48:57.241Z,38.03
2023-01-30T23:51:25.728Z,38.25
2023-01-30T23:53:52.699Z,37.40
2023-01-30T23:56:20.633Z,37.83
2023-01-30T23:58:47.581Z,34.63
